createdAt,value
2022-08-08T00:00:56.386Z,1.87
2022-08-08T00:06:08.313Z,2.00
2022-08-08T00:11:15.562Z,1.80
2022-08-08T00:17:00.799Z,2.07
2022-08-08T00:22:10.528Z,1.80
2022-08-08T00:27:14.747Z,1.70
2022-08-08T00:32:48.198Z,1.80
2022-08-08T00:38:52.183Z,2.00
2022-08-08T00:44:11.651Z,1.83
2022-08-08T00:49:33.214Z,1.60
2022-08-08T00:55:16.800Z,1.90
2022-08-08T01:00:26.027Z,1.87
2022-08-08T01:05:59.174Z,1.50
2022-08-08T01:11:11.476Z,1.70
2022-08-08T01:16:39.910Z,1.97
2022-08-08T01:22:13.675Z,1.77
2022-08-08T01:28:00.291Z,1.47
2022-08-08T01:33:33.861Z,1.50
2022-08-08T01:39:23.207Z,1.87
2022-08-08T01:45:02.946Z,1.80
2022-08-08T01:50:19.974Z,1.87
2022-08-08T01:56:27.819Z,1.87
2022-08-08T02:01:24.908Z,1.67
2022-08-08T02:06:58.606Z,1.77
2022-08-08T02:12:23.837Z,2.20
2022-08-08T02:17:46.236Z,1.80
2022-08-08T02:23:07.749Z,1.90
2022-08-08T02:28:13.876Z,1.63
2022-08-08T02:34:00.480Z,1.70
2022-08-08T02:39:42.451Z,1.73
2022-08-08T02:44:58.062Z,1.83
2022-08-08T02:50:55.767Z,1.73
2022-08-08T02:56:18.034Z,1.83
2022-08-08T03:01:47.467Z,1.90
2022-08-08T03:07:19.532Z,1.80
2022-08-08T03:13:02.342Z,1.80
2022-08-08T03:18:31.065Z,1.90
2022-08-08T03:23:39.644Z,1.60
2022-08-08T03:29:03.371Z,1.87
2022-08-08T03:34:06.431Z,1.73
2022-08-08T03:39:17.045Z,1.87
2022-08-08T03:44:20.325Z,1.70
2022-08-08T03:49:57.160Z,1.80
2022-08-08T03:55:02.019Z,1.70
2022-08-08T04:00:18.242Z,1.80
2022-08-08T04:05:28.005Z,1.97
2022-08-08T04:10:33.050Z,2.37
2022-08-08T04:15:38.585Z,1.90
2022-08-08T04:20:41.976Z,2.13
2022-08-08T04:25:44.662Z,2.20
2022-08-08T04:30:49.360Z,2.17
2022-08-08T04:35:52.175Z,2.40
2022-08-08T04:40:55.069Z,2.00
2022-08-08T04:45:58.275Z,2.07
2022-08-08T04:51:01.434Z,2.00
2022-08-08T04:56:04.551Z,2.70
2022-08-08T05:01:10.577Z,1.97
2022-08-08T05:06:25.333Z,2.13
2022-08-08T05:11:39.710Z,2.87
2022-08-08T05:16:51.735Z,1.93
2022-08-08T05:22:02.867Z,1.90
2022-08-08T05:27:06.092Z,2.10
2022-08-08T05:32:09.579Z,2.50
2022-08-08T05:37:19.803Z,2.43
2022-08-08T05:42:43.300Z,2.07
2022-08-08T05:48:00.066Z,1.80
2022-08-08T05:53:55.379Z,2.10
2022-08-08T05:58:33.379Z,1.93
2022-08-08T06:03:37.522Z,2.10
2022-08-08T06:08:54.640Z,1.67
2022-08-08T06:13:58.510Z,1.70
2022-08-08T06:19:04.034Z,1.43
2022-08-08T06:24:13.868Z,1.70
2022-08-08T06:29:56.629Z,1.43
2022-08-08T06:36:04.797Z,1.30
2022-08-08T06:40:27.260Z,1.20
2022-08-08T06:45:33.716Z,1.30
2022-08-08T06:50:38.232Z,1.30
2022-08-08T06:55:42.190Z,1.20
2022-08-08T07:00:48.828Z,1.17
2022-08-08T07:06:01.694Z,1.40
2022-08-08T07:11:07.647Z,1.10
2022-08-08T07:16:19.748Z,1.00
2022-08-08T07:21:37.741Z,1.20
2022-08-08T07:26:41.542Z,1.00
2022-08-08T07:31:44.987Z,1.20
2022-08-08T07:36:51.937Z,1.13
2022-08-08T07:42:03.484Z,1.00
2022-08-08T07:47:07.747Z,1.00
2022-08-08T07:52:13.268Z,1.00
2022-08-08T07:57:56.567Z,0.95
2022-08-08T08:03:04.672Z,1.10
2022-08-08T08:08:19.026Z,1.10
2022-08-08T08:14:06.093Z,1.30
2022-08-08T08:19:12.786Z,1.10
2022-08-08T08:24:18.449Z,1.17
2022-08-08T08:29:21.683Z,1.08
2022-08-08T08:34:32.189Z,1.10
2022-08-08T08:40:01.300Z,1.33
2022-08-08T08:45:21.569Z,1.20
2022-08-08T08:50:33.051Z,1.05
2022-08-08T08:55:40.122Z,1.38
2022-08-08T09:01:04.843Z,1.20
2022-08-08T09:06:26.173Z,1.10
2022-08-08T09:11:33.062Z,1.10
2022-08-08T09:16:36.220Z,1.23
2022-08-08T09:21:57.969Z,1.48
2022-08-08T09:27:14.788Z,1.20
2022-08-08T09:32:39.927Z,0.88
2022-08-08T09:38:01.687Z,1.15
2022-08-08T09:44:04.711Z,1.02
2022-08-08T09:48:50.124Z,1.30
2022-08-08T09:54:08.568Z,1.30
2022-08-08T09:59:57.153Z,1.23
2022-08-08T10:04:52.685Z,1.58
2022-08-08T10:09:59.984Z,1.15
2022-08-08T10:15:17.969Z,1.45
2022-08-08T10:20:40.195Z,1.42
2022-08-08T10:25:57.188Z,2.67
2022-08-08T10:31:25.245Z,1.40
2022-08-08T10:36:45.279Z,1.83
2022-08-08T10:42:14.688Z,2.00
2022-08-08T10:47:21.226Z,1.85
2022-08-08T10:52:30.863Z,1.55
2022-08-08T10:57:50.571Z,1.40
2022-08-08T11:02:57.357Z,1.63
2022-08-08T11:08:31.117Z,1.65
2022-08-08T11:13:29.798Z,1.70
2022-08-08T11:18:35.762Z,2.00
2022-08-08T11:23:42.294Z,1.35
2022-08-08T11:28:46.170Z,1.35
2022-08-08T11:34:01.936Z,1.27
2022-08-08T11:39:12.628Z,1.52
2022-08-08T11:44:16.182Z,1.70
2022-08-08T11:49:19.321Z,1.75
2022-08-08T11:54:34.141Z,1.58
2022-08-08T12:00:00.356Z,1.40
2022-08-08T12:05:07.496Z,1.05
2022-08-08T12:10:15.008Z,1.50
2022-08-08T12:15:40.069Z,1.63
2022-08-08T12:20:45.784Z,1.52
2022-08-08T12:25:55.102Z,1.60
2022-08-08T12:31:06.552Z,1.50
2022-08-08T12:36:13.972Z,1.65
2022-08-08T12:41:33.626Z,1.27
2022-08-08T12:46:38.251Z,1.45
2022-08-08T12:51:50.194Z,1.10
2022-08-08T12:56:57.029Z,1.30
2022-08-08T13:02:01.194Z,1.48
2022-08-08T13:07:07.094Z,1.48
2022-08-08T13:12:30.096Z,1.52
2022-08-08T13:18:09.287Z,1.40
2022-08-08T13:28:32.106Z,1.23
2022-08-08T13:33:42.487Z,1.30
2022-08-08T13:38:46.070Z,1.48
2022-08-08T13:43:51.018Z,1.00
2022-08-08T13:49:11.391Z,1.40
2022-08-08T13:54:22.623Z,1.00
2022-08-08T13:59:39.462Z,0.90
2022-08-08T14:05:20.245Z,1.20
2022-08-08T14:10:33.588Z,1.08
2022-08-08T14:15:50.159Z,1.17
2022-08-08T14:21:03.296Z,1.05
2022-08-08T14:26:10.769Z,1.20
2022-08-08T14:31:23.231Z,1.02
2022-08-08T14:36:41.458Z,1.30
2022-08-08T14:42:03.480Z,1.05
2022-08-08T14:47:21.181Z,1.10
2022-08-08T14:52:24.706Z,1.25
2022-08-08T14:58:06.017Z,1.17
2022-08-08T15:03:09.490Z,0.90
2022-08-08T15:08:22.044Z,1.05
2022-08-08T15:13:40.570Z,1.05
2022-08-08T15:18:59.680Z,1.20
2022-08-08T15:24:02.692Z,1.45
2022-08-08T15:29:06.687Z,1.20
2022-08-08T15:34:18.622Z,1.50
2022-08-08T15:39:38.374Z,1.17
2022-08-08T15:44:42.904Z,1.23
2022-08-08T15:49:49.119Z,1.80
2022-08-08T15:54:53.589Z,1.50
2022-08-08T16:00:06.618Z,1.02
2022-08-08T16:05:20.697Z,1.10
2022-08-08T16:13:03.134Z,1.17
2022-08-08T16:15:58.185Z,1.40
2022-08-08T16:21:03.039Z,1.40
2022-08-08T16:26:13.175Z,1.10
2022-08-08T16:31:22.081Z,1.33
2022-08-08T16:36:33.898Z,1.40
2022-08-08T16:41:37.972Z,1.33
2022-08-08T16:46:44.546Z,1.15
2022-08-08T16:55:02.813Z,1.42
2022-08-08T16:57:51.145Z,1.02
2022-08-08T17:02:39.671Z,1.40
2022-08-08T17:07:42.752Z,1.50
2022-08-08T17:12:52.646Z,1.40
2022-08-08T17:18:03.088Z,1.10
2022-08-08T17:23:18.146Z,1.15
2022-08-08T17:28:34.524Z,1.15
2022-08-08T17:34:37.653Z,1.23
2022-08-08T17:39:05.081Z,1.30
2022-08-08T17:44:27.017Z,1.50
2022-08-08T17:49:38.157Z,1.20
2022-08-08T17:54:46.196Z,1.20
2022-08-08T17:59:49.344Z,1.23
2022-08-08T18:04:58.070Z,1.30
2022-08-08T18:10:01.464Z,1.40
2022-08-08T18:15:07.401Z,1.20
2022-08-08T18:20:36.536Z,1.80
2022-08-08T18:25:37.223Z,1.80
2022-08-08T18:30:40.797Z,1.60
2022-08-08T18:35:48.578Z,1.40
2022-08-08T18:40:51.744Z,1.95
2022-08-08T18:46:56.400Z,1.70
2022-08-08T18:51:48.306Z,1.73
2022-08-08T18:56:44.032Z,2.13
2022-08-08T19:02:25.152Z,2.00
2022-08-08T19:07:09.458Z,1.90
2022-08-08T19:12:13.472Z,1.90
2022-08-08T19:17:29.519Z,2.40
2022-08-08T19:22:38.976Z,2.22
2022-08-08T19:27:55.983Z,1.52
2022-08-08T19:33:00.954Z,1.95
2022-08-08T19:38:03.767Z,1.80
2022-08-08T19:43:11.653Z,2.00
2022-08-08T19:48:29.216Z,1.93
2022-08-08T19:53:53.488Z,2.00
2022-08-08T19:58:56.593Z,1.90
2022-08-08T20:04:03.407Z,2.28
2022-08-08T20:09:08.997Z,2.10
2022-08-08T20:14:34.567Z,2.33
2022-08-08T20:19:42.376Z,2.10
2022-08-08T20:24:46.551Z,2.33
2022-08-08T20:30:00.153Z,2.43
2022-08-08T20:35:04.757Z,2.10
2022-08-08T20:40:08.677Z,2.73
2022-08-08T20:45:11.695Z,2.53
2022-08-08T20:50:15.407Z,2.50
2022-08-08T20:55:25.744Z,2.73
2022-08-08T21:00:29.055Z,2.53
2022-08-08T21:05:33.247Z,2.93
2022-08-08T21:10:55.987Z,2.70
2022-08-08T21:16:06.320Z,2.33
2022-08-08T21:21:41.141Z,2.53
2022-08-08T21:26:44.862Z,2.60
2022-08-08T21:31:57.860Z,2.50
2022-08-08T21:37:16.168Z,2.90
2022-08-08T21:42:23.603Z,2.80
2022-08-08T21:48:07.614Z,2.77
2022-08-08T21:54:32.567Z,2.40
2022-08-08T21:58:15.872Z,2.70
2022-08-08T22:03:20.371Z,2.80
2022-08-08T22:08:24.239Z,2.40
2022-08-08T22:13:43.367Z,2.87
2022-08-08T22:18:52.649Z,2.63
2022-08-08T22:23:56.029Z,2.57
2022-08-08T22:29:14.347Z,3.07
2022-08-08T22:34:23.441Z,2.97
2022-08-08T22:39:39.334Z,2.63
2022-08-08T22:44:49.273Z,3.27
2022-08-08T22:49:53.988Z,2.70
2022-08-08T22:55:04.919Z,3.30
2022-08-08T23:00:11.745Z,2.93
2022-08-08T23:05:16.187Z,2.73
2022-08-08T23:10:21.623Z,2.60
2022-08-08T23:16:39.702Z,2.70
2022-08-08T23:20:51.467Z,2.90
2022-08-08T23:25:58.287Z,3.10
2022-08-08T23:31:02.542Z,2.80
2022-08-08T23:36:08.002Z,3.13
2022-08-08T23:41:22.873Z,3.20
2022-08-08T23:49:04.473Z,2.63
2022-08-08T23:52:06.770Z,3.00
2022-08-08T23:57:25.575Z,2.30
